PWSweather.com
Personal Weather Stations
Station Observations
KNJEWING3
Ewing, NJ 08638

Ewing, NJ 08638

Lat: 40.25193, Lon: -74.77511

Elevation: 106

Station Type: Oregon Scientific WMR968 / SRS100 Solar Radiation Shield. Rain Data At www.cocorahs.org (NJ-MC-11)

Latest ConditionsUpdated 2:07:05 AM EST Sunday, Nov 23, 2014
Currently Today's Max Today's Min Today's Average
Temperature 41.0°F5.0°C 41.7°F5.4°C 40.8°F4.9°C 41.2°F5.1°C
Dew Point 19.7°F-6.8°C 20.3°F-6.5°C 19.5°F-6.9°C 19.8°F-6.8°C
Winds 6.4 mph SSW10.3 kmh SSW 9.1 mph SW14.6 kmh SW - 3.3 mph 5.3 kmh
Wind Gusts 7.5 mph12.1 kmh 9.1 mph14.6 kmh - -
Humidity 42% 42% 42% 42%
Pressure 30.29 in1025.7 mb 30.32 in1026.8 mb 30.29 in1025.7 mb -
Hour Temp Dew Point Humidity Winds Wind Gusts Pressure Precip Precip Rate Daily Precip Total
02:07 AM 41.0°F5.0°C 19.7°F-6.8°C 42% 6.4 mph SSW10.3 kmh SSW 7.5 mph12.1 kmh 30.29 in1025.7 mb 0.00 in0.0 mm 0.00 in/hr0.0 mm/hr 0.00 in0.0 mm
02:06 AM 41.0°F5.0°C 19.7°F-6.8°C 42% 4.8 mph SW7.7 kmh SW 7.5 mph12.1 kmh 30.29 in1025.7 mb 0.00 in0.0 mm 0.00 in/hr0.0 mm/hr 0.00 in0.0 mm
02:04 AM 41.0°F5.0°C 19.7°F-6.8°C 42% 7.0 mph SW11.3 kmh SW 9.1 mph14.6 kmh 30.29 in1025.7 mb 0.00 in0.0 mm 0.00 in/hr0.0 mm/hr 0.00 in0.0 mm
02:03 AM 41.0°F5.0°C 19.7°F-6.8°C 42% 4.8 mph SSW7.7 kmh SSW 9.1 mph14.6 kmh 30.29 in1025.7 mb 0.00 in0.0 mm 0.00 in/hr0.0 mm/hr 0.00 in0.0 mm
02:02 AM 41.0°F5.0°C 19.7°F-6.8°C 42% 3.2 mph SSW5.1 kmh SSW 9.1 mph14.6 kmh 30.29 in1025.7 mb 0.00 in0.0 mm 0.00 in/hr0.0 mm/hr 0.00 in0.0 mm
02:01 AM 41.0°F5.0°C 19.7°F-6.8°C 42% 3.8 mph SW6.1 kmh SW 9.1 mph14.6 kmh 30.29 in1025.7 mb 0.00 in0.0 mm 0.00 in/hr0.0 mm/hr 0.00 in0.0 mm
02:00 AM 41.0°F5.0°C 19.7°F-6.8°C 42% 6.4 mph SW10.3 kmh SW 9.1 mph14.6 kmh 30.29 in1025.7 mb 0.00 in0.0 mm 0.00 in/hr0.0 mm/hr 0.00 in0.0 mm
01:59 AM 41.0°F5.0°C 19.7°F-6.8°C 42% 6.4 mph SW10.3 kmh SW 9.1 mph14.6 kmh 30.29 in1025.7 mb 0.00 in0.0 mm 0.00 in/hr0.0 mm/hr 0.00 in0.0 mm
01:58 AM 41.0°F5.0°C 19.7°F-6.8°C 42% 8.1 mph SW13.0 kmh SW 9.1 mph14.6 kmh 30.29 in1025.7 mb 0.00 in0.0 mm 0.00 in/hr0.0 mm/hr 0.00 in0.0 mm
01:57 AM 41.0°F5.0°C 19.7°F-6.8°C 42% 4.8 mph SW7.7 kmh SW 9.1 mph14.6 kmh 30.29 in1025.7 mb 0.00 in0.0 mm 0.00 in/hr0.0 mm/hr 0.00 in0.0 mm
01:56 AM 41.0°F5.0°C 19.7°F-6.8°C 42% 3.8 mph W6.1 kmh W 9.1 mph14.6 kmh 30.29 in1025.7 mb 0.00 in0.0 mm 0.00 in/hr0.0 mm/hr 0.00 in0.0 mm
01:54 AM 41.0°F5.0°C 19.7°F-6.8°C 42% 7.0 mph SW11.3 kmh SW 9.1 mph14.6 kmh 30.29 in1025.7 mb 0.00 in0.0 mm 0.00 in/hr0.0 mm/hr 0.00 in0.0 mm
01:53 AM 41.0°F5.0°C 19.7°F-6.8°C 42% 4.3 mph WSW6.9 kmh WSW 9.1 mph14.6 kmh 30.29 in1025.7 mb 0.00 in0.0 mm 0.00 in/hr0.0 mm/hr 0.00 in0.0 mm
01:52 AM 41.0°F5.0°C 19.7°F-6.8°C 42% 3.8 mph SW6.1 kmh SW 9.1 mph14.6 kmh 30.29 in1025.7 mb 0.00 in0.0 mm 0.00 in/hr0.0 mm/hr 0.00 in0.0 mm
01:51 AM 41.0°F5.0°C 19.7°F-6.8°C 42% 9.1 mph SW14.6 kmh SW 9.1 mph14.6 kmh 30.29 in1025.7 mb 0.00 in0.0 mm 0.00 in/hr0.0 mm/hr 0.00 in0.0 mm
01:50 AM 41.0°F5.0°C 19.7°F-6.8°C 42% 4.3 mph WSW6.9 kmh WSW 7.0 mph11.3 kmh 30.29 in1025.7 mb 0.00 in0.0 mm 0.00 in/hr0.0 mm/hr 0.00 in0.0 mm
01:48 AM 41.0°F5.0°C 19.7°F-6.8°C 42% 4.8 mph SW7.7 kmh SW 7.0 mph11.3 kmh 30.29 in1025.7 mb 0.00 in0.0 mm 0.00 in/hr0.0 mm/hr 0.00 in0.0 mm
01:47 AM 41.0°F5.0°C 19.7°F-6.8°C 42% 4.3 mph SW6.9 kmh SW 7.0 mph11.3 kmh 30.29 in1025.7 mb 0.00 in0.0 mm 0.00 in/hr0.0 mm/hr 0.00 in0.0 mm
01:46 AM 41.0°F5.0°C 19.7°F-6.8°C 42% 3.8 mph SW6.1 kmh SW 7.0 mph11.3 kmh 30.29 in1025.7 mb 0.00 in0.0 mm 0.00 in/hr0.0 mm/hr 0.00 in0.0 mm
01:45 AM 41.0°F5.0°C 19.7°F-6.8°C 42% 4.8 mph SW7.7 kmh SW 7.0 mph11.3 kmh 30.29 in1025.7 mb 0.00 in0.0 mm 0.00 in/hr0.0 mm/hr 0.00 in0.0 mm
01:44 AM 41.0°F5.0°C 19.7°F-6.8°C 42% 7.0 mph WSW11.3 kmh WSW 7.0 mph11.3 kmh 30.29 in1025.7 mb 0.00 in0.0 mm 0.00 in/hr0.0 mm/hr 0.00 in0.0 mm
01:43 AM 41.0°F5.0°C 19.7°F-6.8°C 42% 3.2 mph W5.1 kmh W 5.9 mph9.5 kmh 30.29 in1025.7 mb 0.00 in0.0 mm 0.00 in/hr0.0 mm/hr 0.00 in0.0 mm
01:41 AM 41.0°F5.0°C 19.7°F-6.8°C 42% 4.3 mph W6.9 kmh W 5.9 mph9.5 kmh 30.29 in1025.7 mb 0.00 in0.0 mm 0.00 in/hr0.0 mm/hr 0.00 in0.0 mm
01:40 AM 41.0°F5.0°C 19.7°F-6.8°C 42% 4.8 mph SW7.7 kmh SW 5.9 mph9.5 kmh 30.29 in1025.7 mb 0.00 in0.0 mm 0.00 in/hr0.0 mm/hr 0.00 in0.0 mm
01:39 AM 41.0°F5.0°C 19.7°F-6.8°C 42% 3.8 mph SW6.1 kmh SW 5.4 mph8.7 kmh 30.29 in1025.7 mb 0.00 in0.0 mm 0.00 in/hr0.0 mm/hr 0.00 in0.0 mm
01:37 AM 41.0°F5.0°C 19.7°F-6.8°C 42% 4.3 mph SW6.9 kmh SW 4.8 mph7.7 kmh 30.29 in1025.7 mb 0.00 in0.0 mm 0.00 in/hr0.0 mm/hr 0.00 in0.0 mm
01:36 AM 41.0°F5.0°C 19.7°F-6.8°C 42% 4.3 mph WSW6.9 kmh WSW 4.8 mph7.7 kmh 30.29 in1025.7 mb 0.00 in0.0 mm 0.00 in/hr0.0 mm/hr 0.00 in0.0 mm
01:35 AM 41.0°F5.0°C 19.7°F-6.8°C 42% 3.8 mph SW6.1 kmh SW 4.8 mph7.7 kmh 30.29 in1025.7 mb 0.00 in0.0 mm 0.00 in/hr0.0 mm/hr 0.00 in0.0 mm
01:34 AM 41.0°F5.0°C 19.7°F-6.8°C 42% 4.8 mph WSW7.7 kmh WSW 4.8 mph7.7 kmh 30.29 in1025.7 mb 0.00 in0.0 mm 0.00 in/hr0.0 mm/hr 0.00 in0.0 mm
01:33 AM 41.0°F5.0°C 19.7°F-6.8°C 42% 3.2 mph WSW5.1 kmh WSW 4.8 mph7.7 kmh 30.29 in1025.7 mb 0.00 in0.0 mm 0.00 in/hr0.0 mm/hr 0.00 in0.0 mm
01:32 AM 41.0°F5.0°C 19.7°F-6.8°C 42% 3.2 mph WSW5.1 kmh WSW 4.8 mph7.7 kmh 30.29 in1025.7 mb 0.00 in0.0 mm 0.00 in/hr0.0 mm/hr 0.00 in0.0 mm
01:31 AM 41.0°F5.0°C 19.7°F-6.8°C 42% 3.8 mph WSW6.1 kmh WSW 4.8 mph7.7 kmh 30.29 in1025.7 mb 0.00 in0.0 mm 0.00 in/hr0.0 mm/hr 0.00 in0.0 mm
01:29 AM 41.0°F5.0°C 19.7°F-6.8°C 42% 4.3 mph WSW6.9 kmh WSW 4.3 mph6.9 kmh 30.29 in1025.7 mb 0.00 in0.0 mm 0.00 in/hr0.0 mm/hr 0.00 in0.0 mm
01:27 AM 41.2°F5.1°C 19.9°F-6.7°C 42% 4.3 mph SW6.9 kmh SW 4.3 mph6.9 kmh 30.29 in1025.7 mb 0.00 in0.0 mm 0.00 in/hr0.0 mm/hr 0.00 in0.0 mm
01:26 AM 41.2°F5.1°C 19.9°F-6.7°C 42% 3.8 mph WSW6.1 kmh WSW 4.3 mph6.9 kmh 30.29 in1025.7 mb 0.00 in0.0 mm 0.00 in/hr0.0 mm/hr 0.00 in0.0 mm
01:25 AM 41.2°F5.1°C 19.9°F-6.7°C 42% 3.2 mph WSW5.1 kmh WSW 3.2 mph5.1 kmh 30.29 in1025.7 mb 0.00 in0.0 mm 0.00 in/hr0.0 mm/hr 0.00 in0.0 mm
01:24 AM 41.2°F5.1°C 19.9°F-6.7°C 42% Calm Calm 3.8 mph6.1 kmh 30.29 in1025.7 mb 0.00 in0.0 mm 0.00 in/hr0.0 mm/hr 0.00 in0.0 mm
01:23 AM 41.2°F5.1°C 19.9°F-6.7°C 42% Calm Calm 4.8 mph7.7 kmh 30.29 in1025.7 mb 0.00 in0.0 mm 0.00 in/hr0.0 mm/hr 0.00 in0.0 mm
01:22 AM 41.2°F5.1°C 19.9°F-6.7°C 42% Calm Calm 4.8 mph7.7 kmh 30.29 in1025.7 mb 0.00 in0.0 mm 0.00 in/hr0.0 mm/hr 0.00 in0.0 mm
01:20 AM 41.2°F5.1°C 19.9°F-6.7°C 42% Calm Calm 4.8 mph7.7 kmh 30.29 in1025.7 mb 0.00 in0.0 mm 0.00 in/hr0.0 mm/hr 0.00 in0.0 mm
01:19 AM 41.2°F5.1°C 19.9°F-6.7°C 42% Calm Calm 4.8 mph7.7 kmh 30.29 in1025.7 mb 0.00 in0.0 mm 0.00 in/hr0.0 mm/hr 0.00 in0.0 mm
01:18 AM 41.2°F5.1°C 19.9°F-6.7°C 42% 3.2 mph SW5.1 kmh SW 4.8 mph7.7 kmh 30.29 in1025.7 mb 0.00 in0.0 mm 0.00 in/hr0.0 mm/hr 0.00 in0.0 mm
01:17 AM 41.2°F5.1°C 19.9°F-6.7°C 42% 3.2 mph WSW5.1 kmh WSW 4.8 mph7.7 kmh 30.29 in1025.7 mb 0.00 in0.0 mm 0.00 in/hr0.0 mm/hr 0.00 in0.0 mm
01:16 AM 41.2°F5.1°C 19.9°F-6.7°C 42% 2.7 mph SW4.3 kmh SW 4.8 mph7.7 kmh 30.29 in1025.7 mb 0.00 in0.0 mm 0.00 in/hr0.0 mm/hr 0.00 in0.0 mm
01:15 AM 41.2°F5.1°C 19.9°F-6.7°C 42% 3.2 mph WSW5.1 kmh WSW 7.0 mph11.3 kmh 30.29 in1025.7 mb 0.00 in0.0 mm 0.00 in/hr0.0 mm/hr 0.00 in0.0 mm
01:14 AM 41.2°F5.1°C 19.9°F-6.7°C 42% 4.3 mph SW6.9 kmh SW 7.0 mph11.3 kmh 30.29 in1025.7 mb 0.00 in0.0 mm 0.00 in/hr0.0 mm/hr 0.00 in0.0 mm
01:12 AM 41.0°F5.0°C 19.7°F-6.8°C 42% 2.7 mph WNW4.3 kmh WNW 7.0 mph11.3 kmh 30.29 in1025.7 mb 0.00 in0.0 mm 0.00 in/hr0.0 mm/hr 0.00 in0.0 mm
01:11 AM 41.0°F5.0°C 19.7°F-6.8°C 42% 3.2 mph WSW5.1 kmh WSW 7.0 mph11.3 kmh 30.29 in1025.7 mb 0.00 in0.0 mm 0.00 in/hr0.0 mm/hr 0.00 in0.0 mm
01:09 AM 41.0°F5.0°C 19.7°F-6.8°C 42% 4.8 mph WSW7.7 kmh WSW 7.0 mph11.3 kmh 30.29 in1025.7 mb 0.00 in0.0 mm 0.00 in/hr0.0 mm/hr 0.00 in0.0 mm
01:08 AM 41.0°F5.0°C 19.7°F-6.8°C 42% 6.4 mph SW10.3 kmh SW 6.4 mph10.3 kmh 30.29 in1025.7 mb 0.00 in0.0 mm 0.00 in/hr0.0 mm/hr 0.00 in0.0 mm
01:07 AM 40.8°F4.9°C 19.5°F-6.9°C 42% 3.2 mph SW5.1 kmh SW 5.9 mph9.5 kmh 30.29 in1025.7 mb 0.00 in0.0 mm 0.00 in/hr0.0 mm/hr 0.00 in0.0 mm
01:06 AM 40.8°F4.9°C 19.5°F-6.9°C 42% 3.8 mph SW6.1 kmh SW 5.9 mph9.5 kmh 30.29 in1025.7 mb 0.00 in0.0 mm 0.00 in/hr0.0 mm/hr 0.00 in0.0 mm
01:05 AM 40.8°F4.9°C 19.5°F-6.9°C 42% 3.2 mph SW5.1 kmh SW 5.9 mph9.5 kmh 30.29 in1025.7 mb 0.00 in0.0 mm 0.00 in/hr0.0 mm/hr 0.00 in0.0 mm
01:04 AM 40.8°F4.9°C 19.5°F-6.9°C 42% 3.8 mph SW6.1 kmh SW 5.9 mph9.5 kmh 30.29 in1025.7 mb 0.00 in0.0 mm 0.00 in/hr0.0 mm/hr 0.00 in0.0 mm
01:02 AM 40.8°F4.9°C 19.5°F-6.9°C 42% 3.8 mph SW6.1 kmh SW 5.4 mph8.7 kmh 30.29 in1025.7 mb 0.00 in0.0 mm 0.00 in/hr0.0 mm/hr 0.00 in0.0 mm
01:01 AM 40.8°F4.9°C 19.5°F-6.9°C 42% 3.2 mph SW5.1 kmh SW 5.4 mph8.7 kmh 30.29 in1025.7 mb 0.00 in0.0 mm 0.00 in/hr0.0 mm/hr 0.00 in0.0 mm
12:59 AM 40.8°F4.9°C 19.5°F-6.9°C 42% 4.3 mph WNW6.9 kmh WNW 5.4 mph8.7 kmh 30.29 in1025.7 mb 0.00 in0.0 mm 0.00 in/hr0.0 mm/hr 0.00 in0.0 mm
12:58 AM 40.8°F4.9°C 19.5°F-6.9°C 42% Calm Calm -- 30.29 in1025.7 mb 0.00 in0.0 mm 0.00 in/hr0.0 mm/hr 0.00 in0.0 mm
12:57 AM 40.8°F4.9°C 19.5°F-6.9°C 42% Calm Calm 3.2 mph5.1 kmh 30.29 in1025.7 mb 0.00 in0.0 mm 0.00 in/hr0.0 mm/hr 0.00 in0.0 mm
12:56 AM 40.8°F4.9°C 19.5°F-6.9°C 42% Calm Calm 3.2 mph5.1 kmh 30.29 in1025.7 mb 0.00 in0.0 mm 0.00 in/hr0.0 mm/hr 0.00 in0.0 mm
12:55 AM 40.8°F4.9°C 19.5°F-6.9°C 42% Calm Calm 3.8 mph6.1 kmh 30.29 in1025.7 mb 0.00 in0.0 mm 0.00 in/hr0.0 mm/hr 0.00 in0.0 mm
12:54 AM 40.8°F4.9°C 19.5°F-6.9°C 42% Calm Calm 4.3 mph6.9 kmh 30.29 in1025.7 mb 0.00 in0.0 mm 0.00 in/hr0.0 mm/hr 0.00 in0.0 mm
12:52 AM 41.0°F5.0°C 19.7°F-6.8°C 42% Calm Calm 4.8 mph7.7 kmh 30.29 in1025.7 mb 0.00 in0.0 mm 0.00 in/hr0.0 mm/hr 0.00 in0.0 mm
12:51 AM 41.0°F5.0°C 19.7°F-6.8°C 42% Calm Calm 4.8 mph7.7 kmh 30.29 in1025.7 mb 0.00 in0.0 mm 0.00 in/hr0.0 mm/hr 0.00 in0.0 mm
12:50 AM 41.0°F5.0°C 19.7°F-6.8°C 42% Calm Calm 7.0 mph11.3 kmh 30.29 in1025.7 mb 0.00 in0.0 mm 0.00 in/hr0.0 mm/hr 0.00 in0.0 mm
12:48 AM 41.0°F5.0°C 19.7°F-6.8°C 42% 3.8 mph SW6.1 kmh SW 7.0 mph11.3 kmh 30.29 in1025.7 mb 0.00 in0.0 mm 0.00 in/hr0.0 mm/hr 0.00 in0.0 mm
12:47 AM 41.2°F5.1°C 19.9°F-6.7°C 42% 4.3 mph SW6.9 kmh SW 7.0 mph11.3 kmh 30.29 in1025.7 mb 0.00 in0.0 mm 0.00 in/hr0.0 mm/hr 0.00 in0.0 mm
12:46 AM 41.2°F5.1°C 19.9°F-6.7°C 42% 4.3 mph SW6.9 kmh SW 7.0 mph11.3 kmh 30.29 in1025.7 mb 0.00 in0.0 mm 0.00 in/hr0.0 mm/hr 0.00 in0.0 mm
12:45 AM 41.2°F5.1°C 19.9°F-6.7°C 42% 3.2 mph SW5.1 kmh SW 7.0 mph11.3 kmh 30.29 in1025.7 mb 0.00 in0.0 mm 0.00 in/hr0.0 mm/hr 0.00 in0.0 mm
12:43 AM 41.2°F5.1°C 19.9°F-6.7°C 42% 7.0 mph SW11.3 kmh SW 7.0 mph11.3 kmh 30.29 in1025.7 mb 0.00 in0.0 mm 0.00 in/hr0.0 mm/hr 0.00 in0.0 mm
12:41 AM 41.2°F5.1°C 19.9°F-6.7°C 42% 3.2 mph SW5.1 kmh SW 4.8 mph7.7 kmh 30.29 in1025.7 mb 0.00 in0.0 mm 0.00 in/hr0.0 mm/hr 0.00 in0.0 mm
12:40 AM 41.2°F5.1°C 19.9°F-6.7°C 42% Calm Calm 7.0 mph11.3 kmh 30.29 in1025.7 mb 0.00 in0.0 mm 0.00 in/hr0.0 mm/hr 0.00 in0.0 mm
12:39 AM 41.2°F5.1°C 19.9°F-6.7°C 42% Calm Calm 7.0 mph11.3 kmh 30.29 in1025.7 mb 0.00 in0.0 mm 0.00 in/hr0.0 mm/hr 0.00 in0.0 mm
12:38 AM 41.2°F5.1°C 19.9°F-6.7°C 42% 3.8 mph SW6.1 kmh SW 7.0 mph11.3 kmh 30.29 in1025.7 mb 0.00 in0.0 mm 0.00 in/hr0.0 mm/hr 0.00 in0.0 mm
12:37 AM 41.2°F5.1°C 19.9°F-6.7°C 42% 3.8 mph SW6.1 kmh SW 7.0 mph11.3 kmh 30.29 in1025.7 mb 0.00 in0.0 mm 0.00 in/hr0.0 mm/hr 0.00 in0.0 mm
12:36 AM 41.2°F5.1°C 19.9°F-6.7°C 42% Calm Calm 7.0 mph11.3 kmh 30.29 in1025.7 mb 0.00 in0.0 mm 0.00 in/hr0.0 mm/hr 0.00 in0.0 mm
12:35 AM 41.4°F5.2°C 20.0°F-6.7°C 42% Calm Calm 7.0 mph11.3 kmh 30.29 in1025.7 mb 0.00 in0.0 mm 0.00 in/hr0.0 mm/hr 0.00 in0.0 mm
12:34 AM 41.4°F5.2°C 20.0°F-6.7°C 42% 4.3 mph SW6.9 kmh SW 7.0 mph11.3 kmh 30.29 in1025.7 mb 0.00 in0.0 mm 0.00 in/hr0.0 mm/hr 0.00 in0.0 mm
12:33 AM 41.4°F5.2°C 20.0°F-6.7°C 42% 7.0 mph SW11.3 kmh SW 7.0 mph11.3 kmh 30.29 in1025.7 mb 0.00 in0.0 mm 0.00 in/hr0.0 mm/hr 0.00 in0.0 mm
12:32 AM 41.4°F5.2°C 20.0°F-6.7°C 42% 3.8 mph SW6.1 kmh SW 7.0 mph11.3 kmh 30.29 in1025.7 mb 0.00 in0.0 mm 0.00 in/hr0.0 mm/hr 0.00 in0.0 mm
12:31 AM 41.4°F5.2°C 20.0°F-6.7°C 42% 4.3 mph WSW6.9 kmh WSW 5.9 mph9.5 kmh 30.29 in1025.7 mb 0.00 in0.0 mm 0.00 in/hr0.0 mm/hr 0.00 in0.0 mm
12:30 AM 41.4°F5.2°C 20.0°F-6.7°C 42% 3.8 mph SW6.1 kmh SW 5.9 mph9.5 kmh 30.29 in1025.7 mb 0.00 in0.0 mm 0.00 in/hr0.0 mm/hr 0.00 in0.0 mm
12:29 AM 41.4°F5.2°C 20.0°F-6.7°C 42% 3.2 mph SW5.1 kmh SW 7.0 mph11.3 kmh 30.29 in1025.7 mb 0.00 in0.0 mm 0.00 in/hr0.0 mm/hr 0.00 in0.0 mm
12:28 AM 41.4°F5.2°C 20.0°F-6.7°C 42% 4.8 mph SW7.7 kmh SW 7.0 mph11.3 kmh 30.29 in1025.7 mb 0.00 in0.0 mm 0.00 in/hr0.0 mm/hr 0.00 in0.0 mm
12:27 AM 41.4°F5.2°C 20.0°F-6.7°C 42% Calm Calm 7.0 mph11.3 kmh 30.29 in1025.7 mb 0.00 in0.0 mm 0.00 in/hr0.0 mm/hr 0.00 in0.0 mm
12:26 AM 41.4°F5.2°C 20.0°F-6.7°C 42% Calm Calm 7.0 mph11.3 kmh 30.29 in1025.7 mb 0.00 in0.0 mm 0.00 in/hr0.0 mm/hr 0.00 in0.0 mm
12:25 AM 41.4°F5.2°C 20.0°F-6.7°C 42% Calm Calm 7.0 mph11.3 kmh 30.29 in1025.7 mb 0.00 in0.0 mm 0.00 in/hr0.0 mm/hr 0.00 in0.0 mm
12:24 AM 41.4°F5.2°C 20.0°F-6.7°C 42% Calm Calm 7.0 mph11.3 kmh 30.29 in1025.7 mb 0.00 in0.0 mm 0.00 in/hr0.0 mm/hr 0.00 in0.0 mm
12:23 AM 41.5°F5.3°C 20.2°F-6.6°C 42% Calm Calm 7.0 mph11.3 kmh 30.32 in1026.8 mb 0.00 in0.0 mm 0.00 in/hr0.0 mm/hr 0.00 in0.0 mm
12:22 AM 41.5°F5.3°C 20.2°F-6.6°C 42% 3.8 mph SW6.1 kmh SW 7.0 mph11.3 kmh 30.32 in1026.8 mb 0.00 in0.0 mm 0.00 in/hr0.0 mm/hr 0.00 in0.0 mm
12:21 AM 41.5°F5.3°C 20.2°F-6.6°C 42% Calm Calm 4.8 mph7.7 kmh 30.32 in1026.8 mb 0.00 in0.0 mm 0.00 in/hr0.0 mm/hr 0.00 in0.0 mm
12:20 AM 41.5°F5.3°C 20.2°F-6.6°C 42% Calm Calm 5.9 mph9.5 kmh 30.32 in1026.8 mb 0.00 in0.0 mm 0.00 in/hr0.0 mm/hr 0.00 in0.0 mm
12:19 AM 41.5°F5.3°C 20.2°F-6.6°C 42% Calm Calm 5.9 mph9.5 kmh 30.32 in1026.8 mb 0.00 in0.0 mm 0.00 in/hr0.0 mm/hr 0.00 in0.0 mm
12:18 AM 41.5°F5.3°C 20.2°F-6.6°C 42% Calm Calm 7.5 mph12.1 kmh 30.32 in1026.8 mb 0.00 in0.0 mm 0.00 in/hr0.0 mm/hr 0.00 in0.0 mm
12:17 AM 41.5°F5.3°C 20.2°F-6.6°C 42% 3.8 mph SW6.1 kmh SW 7.5 mph12.1 kmh 30.32 in1026.8 mb 0.00 in0.0 mm 0.00 in/hr0.0 mm/hr 0.00 in0.0 mm
12:16 AM 41.5°F5.3°C 20.2°F-6.6°C 42% 4.3 mph SW6.9 kmh SW 7.5 mph12.1 kmh 30.32 in1026.8 mb 0.00 in0.0 mm 0.00 in/hr0.0 mm/hr 0.00 in0.0 mm
12:15 AM 41.7°F5.4°C 20.3°F-6.5°C 42% 3.2 mph SW5.1 kmh SW 7.5 mph12.1 kmh 30.32 in1026.8 mb 0.00 in0.0 mm 0.00 in/hr0.0 mm/hr 0.00 in0.0 mm
12:14 AM 41.7°F5.4°C 20.3°F-6.5°C 42% 3.2 mph SW5.1 kmh SW 7.5 mph12.1 kmh 30.32 in1026.8 mb 0.00 in0.0 mm 0.00 in/hr0.0 mm/hr 0.00 in0.0 mm
12:13 AM 41.7°F5.4°C 20.3°F-6.5°C 42% 5.9 mph SW9.5 kmh SW 7.5 mph12.1 kmh 30.32 in1026.8 mb 0.00 in0.0 mm 0.00 in/hr0.0 mm/hr 0.00 in0.0 mm
12:12 AM 41.7°F5.4°C 20.3°F-6.5°C 42% 3.2 mph WSW5.1 kmh WSW 7.5 mph12.1 kmh 30.32 in1026.8 mb 0.00 in0.0 mm 0.00 in/hr0.0 mm/hr 0.00 in0.0 mm
12:11 AM 41.7°F5.4°C 20.3°F-6.5°C 42% 7.5 mph SW12.1 kmh SW 7.5 mph12.1 kmh 30.32 in1026.8 mb 0.00 in0.0 mm 0.00 in/hr0.0 mm/hr 0.00 in0.0 mm
12:10 AM 41.7°F5.4°C 20.3°F-6.5°C 42% 3.8 mph SW6.1 kmh SW 6.4 mph10.3 kmh 30.32 in1026.8 mb 0.00 in0.0 mm 0.00 in/hr0.0 mm/hr 0.00 in0.0 mm
12:09 AM 41.7°F5.4°C 20.3°F-6.5°C 42% 4.8 mph WSW7.7 kmh WSW 6.4 mph10.3 kmh 30.32 in1026.8 mb 0.00 in0.0 mm 0.00 in/hr0.0 mm/hr 0.00 in0.0 mm
12:08 AM 41.7°F5.4°C 20.3°F-6.5°C 42% 4.3 mph SW6.9 kmh SW 7.0 mph11.3 kmh 30.32 in1026.8 mb 0.00 in0.0 mm 0.00 in/hr0.0 mm/hr 0.00 in0.0 mm
12:07 AM 41.7°F5.4°C 20.3°F-6.5°C 42% 3.8 mph SW6.1 kmh SW 7.0 mph11.3 kmh 30.32 in1026.8 mb 0.00 in0.0 mm 0.00 in/hr0.0 mm/hr 0.00 in0.0 mm
12:06 AM 41.7°F5.4°C 20.3°F-6.5°C 42% 3.2 mph SW5.1 kmh SW 7.0 mph11.3 kmh 30.32 in1026.8 mb 0.00 in0.0 mm 0.00 in/hr0.0 mm/hr 0.00 in0.0 mm
12:05 AM 41.7°F5.4°C 20.3°F-6.5°C 42% 4.8 mph WSW7.7 kmh WSW 7.0 mph11.3 kmh 30.32 in1026.8 mb 0.00 in0.0 mm 0.00 in/hr0.0 mm/hr 0.00 in0.0 mm
12:04 AM 41.7°F5.4°C 20.3°F-6.5°C 42% 4.3 mph WSW6.9 kmh WSW 7.0 mph11.3 kmh 30.32 in1026.8 mb 0.00 in0.0 mm 0.00 in/hr0.0 mm/hr 0.00 in0.0 mm
12:03 AM 41.7°F5.4°C 20.3°F-6.5°C 42% 4.8 mph SW7.7 kmh SW 7.0 mph11.3 kmh 30.32 in1026.8 mb 0.00 in0.0 mm 0.00 in/hr0.0 mm/hr 0.00 in0.0 mm
12:02 AM 41.7°F5.4°C 20.3°F-6.5°C 42% 3.8 mph SW6.1 kmh SW 7.0 mph11.3 kmh 30.32 in1026.8 mb 0.00 in0.0 mm 0.00 in/hr0.0 mm/hr 0.00 in0.0 mm
12:01 AM 41.7°F5.4°C 20.3°F-6.5°C 42% 4.8 mph SW7.7 kmh SW 7.0 mph11.3 kmh 30.32 in1026.8 mb 0.00 in0.0 mm 0.00 in/hr0.0 mm/hr 0.00 in0.0 mm
12:00 AM 41.7°F5.4°C 20.3°F-6.5°C 42% 3.2 mph SW5.1 kmh SW 7.0 mph11.3 kmh 30.32 in1026.8 mb 0.00 in0.0 mm 0.00 in/hr0.0 mm/hr 0.00 in0.0 mm